createdAt,value
2019-02-18T00:00:24.186Z,85.96
2019-02-18T00:01:24.209Z,85.96
2019-02-18T00:02:24.240Z,85.49
2019-02-18T00:03:24.262Z,85.39
2019-02-18T00:04:24.297Z,85.11
2019-02-18T00:05:24.317Z,85.30
2019-02-18T00:06:24.338Z,85.20
2019-02-18T00:07:24.362Z,84.82
2019-02-18T00:08:24.396Z,84.72
2019-02-18T00:09:24.419Z,84.53
2019-02-18T00:10:24.441Z,84.72
2019-02-18T00:11:24.536Z,85.01
2019-02-18T00:12:24.488Z,84.72
2019-02-18T00:13:24.514Z,85.20
2019-02-18T00:14:24.547Z,85.39
2019-02-18T00:15:24.564Z,85.58
2019-02-18T00:16:24.589Z,85.58
2019-02-18T00:17:24.614Z,86.05
2019-02-18T00:18:24.639Z,85.68
2019-02-18T00:19:24.673Z,85.77
2019-02-18T00:20:24.686Z,85.77
2019-02-18T00:21:24.715Z,86.24
2019-02-18T00:22:24.737Z,86.15
2019-02-18T00:23:24.764Z,86.05
2019-02-18T00:24:24.789Z,86.34
2019-02-18T00:25:24.812Z,86.63
2019-02-18T00:26:24.913Z,87.10
2019-02-18T00:27:24.866Z,87.10
2019-02-18T00:28:24.889Z,87.10
2019-02-18T00:29:24.917Z,87.38
2019-02-18T00:30:24.937Z,87.53
2019-02-18T00:31:24.971Z,87.57
2019-02-18T00:32:24.985Z,87.29
2019-02-18T00:33:25.020Z,87.57
2019-02-18T00:34:25.038Z,87.57
2019-02-18T00:35:25.070Z,87.57
2019-02-18T00:36:25.085Z,87.57
2019-02-18T00:37:25.134Z,87.67
2019-02-18T00:38:25.142Z,87.48
2019-02-18T00:39:25.167Z,87.57
2019-02-18T00:40:25.194Z,87.57
2019-02-18T00:41:25.215Z,87.67
2019-02-18T00:42:25.238Z,87.48
2019-02-18T00:43:25.262Z,87.95
2019-02-18T00:44:25.285Z,87.57
2019-02-18T00:45:25.310Z,87.43
2019-02-18T00:46:25.358Z,87.72
2019-02-18T00:47:25.367Z,87.72
2019-02-18T00:48:25.394Z,87.57
2019-02-18T00:49:25.421Z,87.82
2019-02-18T00:50:25.434Z,88.29
2019-02-18T00:51:25.463Z,88.20
2019-02-18T00:52:25.499Z,88.39
2019-02-18T00:53:25.514Z,88.29
2019-02-18T00:54:25.551Z,87.91
2019-02-18T00:55:25.562Z,87.91
2019-02-18T00:56:25.584Z,87.43
2019-02-18T00:57:25.665Z,87.43
2019-02-18T00:58:25.635Z,87.57
2019-02-18T00:59:25.663Z,87.48
2019-02-18T01:00:25.684Z,87.15
2019-02-18T01:01:25.713Z,88.01
2019-02-18T01:02:25.733Z,88.01
2019-02-18T01:03:25.761Z,88.57
2019-02-18T01:04:25.784Z,88.39
2019-02-18T01:05:25.809Z,88.10
2019-02-18T01:06:25.833Z,87.43
2019-02-18T01:07:34.563Z,87.15
2019-02-18T01:08:25.886Z,86.53
2019-02-18T01:09:25.910Z,86.24
2019-02-18T01:10:25.949Z,86.43
2019-02-18T01:11:25.960Z,85.96
2019-02-18T01:12:25.985Z,85.86
2019-02-18T01:13:26.009Z,85.30
2019-02-18T01:14:26.043Z,85.49
2019-02-18T01:15:26.070Z,85.30
2019-02-18T01:16:26.084Z,84.82
2019-02-18T01:17:26.108Z,85.30
2019-02-18T01:18:26.138Z,85.20
2019-02-18T01:19:26.155Z,85.39
2019-02-18T01:20:26.188Z,85.68
2019-02-18T01:21:26.209Z,85.68
2019-02-18T01:22:26.231Z,86.24
2019-02-18T01:23:26.259Z,86.15
2019-02-18T01:24:26.280Z,86.15
2019-02-18T01:25:26.302Z,86.39
2019-02-18T01:26:26.330Z,86.68
2019-02-18T01:27:26.357Z,87.05
2019-02-18T01:28:26.386Z,87.24
2019-02-18T01:29:26.401Z,87.34
2019-02-18T01:30:26.430Z,86.96
2019-02-18T01:31:26.452Z,87.53
2019-02-18T01:32:26.484Z,87.24
2019-02-18T01:33:26.549Z,87.43
2019-02-18T01:34:26.529Z,87.53
2019-02-18T01:35:26.554Z,87.72
2019-02-18T01:36:26.576Z,87.62
2019-02-18T01:37:26.601Z,88.57
2019-02-18T01:38:26.624Z,88.48
2019-02-18T01:39:26.652Z,88.86
2019-02-18T01:40:26.673Z,88.76
2019-02-18T01:41:26.700Z,89.33
2019-02-18T01:42:26.723Z,89.24
2019-02-18T01:43:26.749Z,89.24
2019-02-18T01:44:26.771Z,89.05
2019-02-18T01:45:26.797Z,89.33
2019-02-18T01:46:26.830Z,89.24
2019-02-18T01:47:26.854Z,89.24
2019-02-18T01:48:26.871Z,89.72
2019-02-18T01:49:26.895Z,89.72
2019-02-18T01:50:26.923Z,89.62
2019-02-18T01:51:26.952Z,90.19
2019-02-18T01:52:26.976Z,90.47
2019-02-18T01:53:27.002Z,89.90
2019-02-18T01:54:27.018Z,90.09
2019-02-18T01:55:27.051Z,90.19
2019-02-18T01:56:27.081Z,90.28
2019-02-18T01:57:27.096Z,90.38
2019-02-18T01:58:27.125Z,90.38
2019-02-18T01:59:27.150Z,90.47
2019-02-18T02:00:27.173Z,91.24
2019-02-18T02:01:27.195Z,90.57
2019-02-18T02:02:27.219Z,91.04
2019-02-18T02:03:27.244Z,90.66
2019-02-18T02:04:27.266Z,90.85
2019-02-18T02:05:27.296Z,90.57
2019-02-18T02:06:27.317Z,90.52
2019-02-18T02:07:27.343Z,90.52
2019-02-18T02:08:27.366Z,90.71
2019-02-18T02:09:27.391Z,90.24
2019-02-18T02:10:27.422Z,90.33
2019-02-18T02:11:27.441Z,90.71
2019-02-18T02:12:27.479Z,91.04
2019-02-18T02:13:27.488Z,91.24
2019-02-18T02:14:27.514Z,91.42
2019-02-18T02:15:27.546Z,91.09
2019-02-18T02:16:27.566Z,91.42
2019-02-18T02:17:27.595Z,91.00
2019-02-18T02:18:27.620Z,91.04
2019-02-18T02:19:27.642Z,90.71
2019-02-18T02:20:27.671Z,91.38
2019-02-18T02:21:27.684Z,91.56
2019-02-18T02:22:27.711Z,91.66
2019-02-18T02:23:27.741Z,91.94
2019-02-18T02:24:27.761Z,91.66
2019-02-18T02:25:27.791Z,91.38
2019-02-18T02:26:27.810Z,91.56
2019-02-18T02:27:27.835Z,91.56
2019-02-18T02:28:27.855Z,91.56
2019-02-18T02:29:27.880Z,91.85
2019-02-18T02:30:27.913Z,92.33
2019-02-18T02:31:27.936Z,91.38
2019-02-18T02:32:27.966Z,91.66
2019-02-18T02:33:27.983Z,91.75
2019-02-18T02:34:28.010Z,91.38
2019-02-18T02:35:28.031Z,91.75
2019-02-18T02:36:28.053Z,91.94
2019-02-18T02:37:28.089Z,91.56
2019-02-18T02:38:28.103Z,91.75
2019-02-18T02:39:28.128Z,91.75
2019-02-18T02:40:28.165Z,91.94
2019-02-18T02:41:28.176Z,91.94
2019-02-18T02:42:28.202Z,92.14
2019-02-18T02:43:28.228Z,92.04
2019-02-18T02:44:28.251Z,91.75
2019-02-18T02:45:28.275Z,92.14
2019-02-18T02:46:28.307Z,92.23
2019-02-18T02:47:28.327Z,91.94
2019-02-18T02:48:28.355Z,92.99
2019-02-18T02:49:28.370Z,92.52
2019-02-18T02:50:28.394Z,92.80
2019-02-18T02:51:28.423Z,92.61
2019-02-18T02:52:28.445Z,92.80
2019-02-18T02:53:28.474Z,92.52
2019-02-18T02:54:28.493Z,92.23
2019-02-18T02:55:28.517Z,91.66
2019-02-18T02:56:28.540Z,92.04
2019-02-18T02:57:28.566Z,92.04
2019-02-18T02:58:28.590Z,91.75
2019-02-18T02:59:28.615Z,91.94
2019-02-18T03:00:28.638Z,92.23
2019-02-18T03:01:28.664Z,92.04
2019-02-18T03:02:28.688Z,92.14
2019-02-18T03:03:28.718Z,92.23
2019-02-18T03:04:28.742Z,92.14
2019-02-18T03:05:28.764Z,92.42
2019-02-18T03:06:28.790Z,91.85
2019-02-18T03:07:28.812Z,92.52
2019-02-18T03:08:28.841Z,92.80
2019-02-18T03:09:28.859Z,91.75
2019-02-18T03:10:28.881Z,92.14
2019-02-18T03:11:28.915Z,92.04
2019-02-18T03:12:28.933Z,92.04
2019-02-18T03:13:28.957Z,92.80
2019-02-18T03:14:28.980Z,92.52
2019-02-18T03:15:29.007Z,92.80
2019-02-18T03:16:29.029Z,92.61
2019-02-18T03:17:29.052Z,92.71
2019-02-18T03:18:29.079Z,92.99
2019-02-18T03:19:29.101Z,92.61
2019-02-18T03:20:29.124Z,92.80
2019-02-18T03:21:29.158Z,92.71
2019-02-18T03:22:29.181Z,93.08
2019-02-18T03:23:29.198Z,92.99
2019-02-18T03:24:29.223Z,92.90
2019-02-18T03:25:29.248Z,93.46
2019-02-18T03:26:29.272Z,93.75
2019-02-18T03:27:29.295Z,93.56
2019-02-18T03:28:29.319Z,93.94
2019-02-18T03:29:29.341Z,93.46
2019-02-18T03:30:29.377Z,93.46
2019-02-18T03:31:29.399Z,93.65
2019-02-18T03:32:29.419Z,93.75
2019-02-18T03:33:29.443Z,93.94
2019-02-18T03:34:29.467Z,93.84
2019-02-18T03:35:29.491Z,94.32
2019-02-18T03:36:29.515Z,94.13
2019-02-18T03:37:29.543Z,94.51
2019-02-18T03:38:31.976Z,94.03
2019-02-18T03:39:29.592Z,94.18
2019-02-18T03:40:29.611Z,94.27
2019-02-18T03:41:29.636Z,94.32
2019-02-18T03:42:29.659Z,94.56
2019-02-18T03:43:29.695Z,94.56
2019-02-18T03:44:29.728Z,94.56
2019-02-18T03:45:29.731Z,94.93
2019-02-18T03:46:29.763Z,94.93
2019-02-18T03:47:29.784Z,95.03
2019-02-18T03:48:29.815Z,95.12
2019-02-18T03:49:29.828Z,95.31
2019-02-18T03:50:29.859Z,95.41
2019-02-18T03:51:29.881Z,95.60
2019-02-18T03:52:29.902Z,95.69
2019-02-18T03:53:29.929Z,95.69
2019-02-18T03:54:29.953Z,95.88
2019-02-18T03:55:29.979Z,95.88
2019-02-18T03:56:30.006Z,95.88
2019-02-18T03:57:30.025Z,95.88
2019-02-18T03:58:30.050Z,95.79
2019-02-18T03:59:30.075Z,96.08
2019-02-18T04:00:30.098Z,95.31
2019-02-18T04:01:30.138Z,95.03
2019-02-18T04:02:30.146Z,95.50
2019-02-18T04:03:30.189Z,95.31
2019-02-18T04:04:30.193Z,95.41
2019-02-18T04:05:30.220Z,95.50
2019-02-18T04:06:30.248Z,95.98
2019-02-18T04:07:30.267Z,96.08
2019-02-18T04:08:30.299Z,95.79
2019-02-18T04:09:32.946Z,95.88
2019-02-18T04:10:30.340Z,95.88
2019-02-18T04:11:30.375Z,95.88
2019-02-18T04:12:30.387Z,95.41
2019-02-18T04:13:30.412Z,95.22
2019-02-18T04:14:30.438Z,95.41
2019-02-18T04:15:30.462Z,95.98
2019-02-18T04:16:30.494Z,96.45
2019-02-18T04:17:30.516Z,96.64
2019-02-18T04:18:30.541Z,97.31
2019-02-18T04:19:30.561Z,96.92
2019-02-18T04:20:30.580Z,97.40
2019-02-18T04:21:30.615Z,96.92
2019-02-18T04:22:30.630Z,97.69
2019-02-18T04:23:30.652Z,97.88
2019-02-18T04:24:30.677Z,97.88
2019-02-18T04:25:30.707Z,98.07
2019-02-18T04:26:30.736Z,98.44
2019-02-18T04:27:30.754Z,98.16
2019-02-18T04:28:30.782Z,98.92
2019-02-18T04:29:30.799Z,98.54
2019-02-18T04:30:30.831Z,98.92
2019-02-18T04:31:30.854Z,99.11
2019-02-18T04:32:30.869Z,98.16
2019-02-18T04:33:30.897Z,98.35
2019-02-18T04:34:30.920Z,98.44
2019-02-18T04:35:30.959Z,98.25
2019-02-18T04:36:30.967Z,98.35
2019-02-18T04:37:30.992Z,97.88
2019-02-18T04:38:31.019Z,97.78
2019-02-18T04:39:31.040Z,97.97
2019-02-18T04:40:31.072Z,97.69
2019-02-18T04:41:31.090Z,97.69
2019-02-18T04:42:31.119Z,97.88
2019-02-18T04:43:31.144Z,97.59
2019-02-18T04:44:31.163Z,97.50
2019-02-18T04:45:31.184Z,97.69
2019-02-18T04:46:31.211Z,98.16
2019-02-18T04:47:31.234Z,98.35
2019-02-18T04:48:31.265Z,98.25
2019-02-18T04:49:31.286Z,98.16
2019-02-18T04:50:31.305Z,97.97
2019-02-18T04:51:31.332Z,98.25
2019-02-18T04:52:31.370Z,98.54
2019-02-18T04:53:31.394Z,98.73
2019-02-18T04:54:31.400Z,98.54
2019-02-18T04:55:31.433Z,98.25
2019-02-18T04:56:31.471Z,98.54
2019-02-18T04:57:31.717Z,98.63
2019-02-18T04:58:31.500Z,99.58
2019-02-18T04:59:31.528Z,99.11
2019-02-18T05:00:31.543Z,98.92
2019-02-18T05:01:31.568Z,99.39
2019-02-18T05:02:31.595Z,99.82
2019-02-18T05:03:31.618Z,99.87
2019-02-18T05:04:31.645Z,99.99
2019-02-18T05:05:31.667Z,99.99
2019-02-18T05:06:31.699Z,99.99
2019-02-18T05:07:31.725Z,99.63
2019-02-18T05:08:31.739Z,99.99
2019-02-18T05:09:31.768Z,99.99
2019-02-18T05:10:31.784Z,99.99
2019-02-18T05:11:31.811Z,99.91
2019-02-18T05:12:31.835Z,99.99
2019-02-18T05:13:31.856Z,99.99
2019-02-18T05:14:31.881Z,99.72
2019-02-18T05:15:31.907Z,99.82
2019-02-18T05:16:31.927Z,99.82
2019-02-18T05:17:31.955Z,99.53
2019-02-18T05:18:31.977Z,99.82
2019-02-18T05:19:31.999Z,99.63
2019-02-18T05:20:32.032Z,99.99
2019-02-18T05:21:32.046Z,99.82
2019-02-18T05:22:32.073Z,99.99
2019-02-18T05:23:32.100Z,99.99
2019-02-18T05:24:32.118Z,99.99
2019-02-18T05:25:32.148Z,99.99
2019-02-18T05:26:32.165Z,99.99
2019-02-18T05:27:33.560Z,99.99
2019-02-18T05:28:32.214Z,99.99
2019-02-18T05:29:32.246Z,99.99
2019-02-18T05:30:32.267Z,99.99
2019-02-18T05:31:32.290Z,99.99
2019-02-18T05:32:32.309Z,99.99
2019-02-18T05:33:32.342Z,99.99
2019-02-18T05:34:32.369Z,99.99
2019-02-18T05:35:32.383Z,99.99
2019-02-18T05:36:32.411Z,99.99
2019-02-18T05:37:32.438Z,99.99
2019-02-18T05:38:32.463Z,99.99
2019-02-18T05:39:32.476Z,99.99
2019-02-18T05:40:32.499Z,99.99
2019-02-18T05:41:32.552Z,99.99
2019-02-18T05:42:32.598Z,99.99
2019-02-18T05:43:32.659Z,99.99
2019-02-18T05:44:32.595Z,99.99
2019-02-18T05:45:32.627Z,99.99
2019-02-18T05:46:32.647Z,99.99
2019-02-18T05:47:32.668Z,99.99
2019-02-18T05:48:34.084Z,99.99
2019-02-18T05:49:32.713Z,99.99
2019-02-18T05:50:32.749Z,99.99
2019-02-18T05:51:32.764Z,99.99
2019-02-18T05:52:32.790Z,99.99
2019-02-18T05:53:32.809Z,99.99
2019-02-18T05:54:32.839Z,99.99
2019-02-18T05:55:32.867Z,99.99
2019-02-18T05:56:32.891Z,99.99
2019-02-18T05:57:32.908Z,99.99
2019-02-18T05:58:32.928Z,99.99
2019-02-18T05:59:32.952Z,99.99
2019-02-18T06:00:32.981Z,99.99
2019-02-18T06:01:33.000Z,99.99
2019-02-18T06:02:33.025Z,99.99
2019-02-18T06:03:33.057Z,99.99
2019-02-18T06:04:33.071Z,99.99
2019-02-18T06:05:33.096Z,99.99
2019-02-18T06:06:33.123Z,99.99
2019-02-18T06:07:33.151Z,99.99
2019-02-18T06:08:33.168Z,99.99
2019-02-18T06:09:33.197Z,99.99
2019-02-18T06:10:33.224Z,99.99
2019-02-18T06:11:33.236Z,99.99
2019-02-18T06:12:33.261Z,99.99
2019-02-18T06:13:33.287Z,99.99
2019-02-18T06:14:33.310Z,99.99
2019-02-18T06:15:33.332Z,99.99
2019-02-18T06:16:33.359Z,99.99
2019-02-18T06:17:33.383Z,99.99
2019-02-18T06:18:33.424Z,99.99
2019-02-18T06:19:33.450Z,99.99
2019-02-18T06:20:33.453Z,99.99
2019-02-18T06:21:33.500Z,99.99
2019-02-18T06:22:33.500Z,99.99
2019-02-18T06:23:33.527Z,99.99
2019-02-18T06:24:33.549Z,99.99
2019-02-18T06:25:33.580Z,99.99
2019-02-18T06:26:33.595Z,99.99
2019-02-18T06:27:33.621Z,99.99
2019-02-18T06:28:33.642Z,99.99
2019-02-18T06:29:33.670Z,99.99
2019-02-18T06:30:33.690Z,99.99
2019-02-18T06:31:33.717Z,99.99
2019-02-18T06:32:33.736Z,99.99
2019-02-18T06:33:33.803Z,99.99
2019-02-18T06:34:33.787Z,99.99
2019-02-18T06:35:33.819Z,99.99
2019-02-18T06:36:33.838Z,99.99
2019-02-18T06:37:33.868Z,99.99
2019-02-18T06:38:33.886Z,99.99
2019-02-18T06:39:41.365Z,99.99
2019-02-18T06:40:33.933Z,99.99
2019-02-18T06:41:33.953Z,99.99
2019-02-18T06:42:33.976Z,99.99
2019-02-18T06:43:34.008Z,99.99
2019-02-18T06:44:34.022Z,99.99
2019-02-18T06:45:34.046Z,99.99
2019-02-18T06:46:34.076Z,99.99
2019-02-18T06:47:34.102Z,99.99
2019-02-18T06:48:34.121Z,99.99
2019-02-18T06:49:34.147Z,99.99
2019-02-18T06:50:34.167Z,99.99
2019-02-18T06:51:34.189Z,99.99
2019-02-18T06:52:34.212Z,99.99
2019-02-18T06:53:34.238Z,99.99
2019-02-18T06:54:34.261Z,99.99
2019-02-18T06:55:34.285Z,99.99
2019-02-18T06:56:34.308Z,99.99
2019-02-18T06:57:34.339Z,99.99
2019-02-18T06:58:34.356Z,99.99
2019-02-18T06:59:34.378Z,99.99
2019-02-18T07:00:34.438Z,99.91
2019-02-18T07:01:34.427Z,99.99
2019-02-18T07:02:34.450Z,99.99
2019-02-18T07:03:34.481Z,99.82
2019-02-18T07:04:34.501Z,99.99
2019-02-18T07:05:34.520Z,99.53
2019-02-18T07:06:34.546Z,99.72
2019-02-18T07:07:34.576Z,99.72
2019-02-18T07:08:34.593Z,99.82
2019-02-18T07:09:34.618Z,99.87
2019-02-18T07:10:34.641Z,99.15
2019-02-18T07:11:34.663Z,99.06
2019-02-18T07:12:34.694Z,99.44
2019-02-18T07:13:34.716Z,98.87
2019-02-18T07:14:34.736Z,99.25
2019-02-18T07:15:34.764Z,99.99
2019-02-18T07:16:34.781Z,99.58
2019-02-18T07:17:34.807Z,99.34
2019-02-18T07:18:34.834Z,98.82
2019-02-18T07:19:34.853Z,98.92
2019-02-18T07:20:34.876Z,98.63
2019-02-18T07:21:34.905Z,98.73
2019-02-18T07:22:34.924Z,98.73
2019-02-18T07:23:34.950Z,98.25
2019-02-18T07:24:34.979Z,98.16
2019-02-18T07:25:35.001Z,98.25
2019-02-18T07:26:35.019Z,98.25
2019-02-18T07:27:35.043Z,98.16
2019-02-18T07:28:35.066Z,97.88
2019-02-18T07:29:35.090Z,97.59
2019-02-18T07:30:35.114Z,97.88
2019-02-18T07:31:35.138Z,98.07
2019-02-18T07:32:35.162Z,96.92
2019-02-18T07:33:35.186Z,96.92
2019-02-18T07:34:35.222Z,96.92
2019-02-18T07:35:35.236Z,96.83
2019-02-18T07:36:35.297Z,96.36
2019-02-18T07:37:35.288Z,95.69
2019-02-18T07:38:35.307Z,95.79
2019-02-18T07:39:35.330Z,95.88
2019-02-18T07:40:35.352Z,96.26
2019-02-18T07:41:35.377Z,96.08
2019-02-18T07:42:35.401Z,95.60
2019-02-18T07:43:35.429Z,95.41
2019-02-18T07:44:35.455Z,95.22
2019-02-18T07:45:35.470Z,95.31
2019-02-18T07:46:35.495Z,95.03
2019-02-18T07:47:35.520Z,95.12
2019-02-18T07:48:36.773Z,94.74
2019-02-18T07:49:35.574Z,94.46
2019-02-18T07:50:35.596Z,94.27
2019-02-18T07:51:35.625Z,94.23
2019-02-18T07:52:35.636Z,94.03
2019-02-18T07:53:35.661Z,93.80
2019-02-18T07:54:35.689Z,93.65
2019-02-18T07:55:35.709Z,93.65
2019-02-18T07:56:35.737Z,93.65
2019-02-18T07:57:35.765Z,93.84
2019-02-18T07:58:35.787Z,93.65
2019-02-18T07:59:35.808Z,93.08
2019-02-18T08:00:35.832Z,92.90
2019-02-18T08:01:35.856Z,93.08
2019-02-18T08:02:35.876Z,92.80
2019-02-18T08:03:35.902Z,92.61
2019-02-18T08:04:35.924Z,92.80
2019-02-18T08:05:35.948Z,92.52
2019-02-18T08:06:35.972Z,92.52
2019-02-18T08:07:35.998Z,92.23
2019-02-18T08:08:36.068Z,92.14
2019-02-18T08:09:36.045Z,92.71
2019-02-18T08:10:36.068Z,92.04
2019-02-18T08:11:36.094Z,91.94
2019-02-18T08:12:36.121Z,92.23
2019-02-18T08:13:36.142Z,92.04
2019-02-18T08:14:36.167Z,92.04
2019-02-18T08:15:36.196Z,92.04
2019-02-18T08:16:36.211Z,91.85
2019-02-18T08:17:36.244Z,91.75
2019-02-18T08:18:36.266Z,91.56
2019-02-18T08:19:36.286Z,92.33
2019-02-18T08:20:36.314Z,91.94
2019-02-18T08:21:36.334Z,91.75
2019-02-18T08:22:36.358Z,91.56
2019-02-18T08:23:36.388Z,91.24
2019-02-18T08:24:36.409Z,91.04
2019-02-18T08:25:36.430Z,91.14
2019-02-18T08:26:36.452Z,91.04
2019-02-18T08:27:36.476Z,91.33
2019-02-18T08:28:36.503Z,90.57
2019-02-18T08:29:36.524Z,90.76
2019-02-18T08:30:36.551Z,90.47
2019-02-18T08:31:36.580Z,90.09
2019-02-18T08:32:36.598Z,89.90
2019-02-18T08:33:36.624Z,89.72
2019-02-18T08:34:36.652Z,89.81
2019-02-18T08:35:36.670Z,89.43
2019-02-18T08:36:36.696Z,89.33
2019-02-18T08:37:36.718Z,89.86
2019-02-18T08:38:36.747Z,89.38
2019-02-18T08:39:36.775Z,88.90
2019-02-18T08:40:36.790Z,88.90
2019-02-18T08:41:36.823Z,87.95
2019-02-18T08:42:36.839Z,88.34
2019-02-18T08:43:36.866Z,87.48
2019-02-18T08:44:36.890Z,87.48
2019-02-18T08:45:36.918Z,86.91
2019-02-18T08:46:36.937Z,86.72
2019-02-18T08:47:36.965Z,86.19
2019-02-18T08:48:36.991Z,86.38
2019-02-18T08:49:37.011Z,86.10
2019-02-18T08:50:37.036Z,86.19
2019-02-18T08:51:37.122Z,85.72
2019-02-18T08:52:37.092Z,85.53
2019-02-18T08:53:37.111Z,85.43
2019-02-18T08:54:37.136Z,85.15
2019-02-18T08:55:37.167Z,84.95
2019-02-18T08:56:37.191Z,84.14
2019-02-18T08:57:37.210Z,83.58
2019-02-18T08:58:37.239Z,84.14
2019-02-18T08:59:37.287Z,84.33
2019-02-18T09:00:37.283Z,83.00
2019-02-18T09:01:37.307Z,82.81
2019-02-18T09:02:37.335Z,82.67
2019-02-18T09:03:37.369Z,80.99
2019-02-18T09:04:37.380Z,77.11
2019-02-18T09:05:37.411Z,73.12
2019-02-18T09:06:37.434Z,68.90
2019-02-18T09:07:37.459Z,65.14
2019-02-18T09:08:37.481Z,61.66
2019-02-18T09:09:37.507Z,59.11
2019-02-18T09:10:37.532Z,57.98
2019-02-18T09:11:37.561Z,56.09
2019-02-18T09:12:37.584Z,55.07
2019-02-18T09:13:37.620Z,53.24
2019-02-18T09:14:37.640Z,52.86
2019-02-18T09:15:37.671Z,52.86
2019-02-18T09:16:37.695Z,52.67
2019-02-18T09:17:40.346Z,52.02
2019-02-18T09:18:37.752Z,50.80
2019-02-18T09:19:37.845Z,49.41
2019-02-18T09:20:37.809Z,48.43
2019-02-18T09:21:37.839Z,48.69
2019-02-18T09:22:37.871Z,48.97
2019-02-18T09:23:37.900Z,48.81
2019-02-18T09:24:37.937Z,48.90
2019-02-18T09:25:37.960Z,47.58
2019-02-18T09:26:38.065Z,46.93
2019-02-18T09:27:38.022Z,46.45
2019-02-18T09:28:38.057Z,45.97
2019-02-18T09:29:38.084Z,45.85
2019-02-18T09:30:38.125Z,46.43
2019-02-18T09:31:38.154Z,46.62
2019-02-18T09:32:38.183Z,46.53
2019-02-18T09:33:38.214Z,47.51
2019-02-18T09:34:38.246Z,48.09
2019-02-18T09:35:38.279Z,48.30
2019-02-18T09:36:38.316Z,47.56
2019-02-18T09:37:38.346Z,47.17
2019-02-18T09:38:38.384Z,53.42
2019-02-18T09:39:38.415Z,62.38
2019-02-18T09:40:45.095Z,59.63
2019-02-18T09:41:38.480Z,59.56
2019-02-18T09:42:38.516Z,52.25
2019-02-18T09:43:38.548Z,51.07
2019-02-18T09:44:38.583Z,53.47
2019-02-18T09:45:38.617Z,55.33
2019-02-18T09:46:40.429Z,53.11
2019-02-18T09:47:38.687Z,51.29
2019-02-18T09:48:38.725Z,51.02
2019-02-18T09:49:38.757Z,48.79
2019-02-18T09:50:39.804Z,52.06
2019-02-18T09:51:38.826Z,51.86
2019-02-18T09:52:38.863Z,53.02
2019-02-18T09:53:38.897Z,52.15
2019-02-18T09:54:38.935Z,51.70
2019-02-18T09:55:38.970Z,50.90
2019-02-18T09:56:39.011Z,50.42
2019-02-18T09:57:39.041Z,50.32
2019-02-18T09:58:41.693Z,55.45
2019-02-18T10:00:21.667Z,46.57
2019-02-18T10:03:47.604Z,45.83
2019-02-18T10:04:47.644Z,52.20
2019-02-18T10:05:47.675Z,50.88
2019-02-18T10:06:47.713Z,42.59
2019-02-18T10:07:47.749Z,41.61
2019-02-18T10:08:47.784Z,41.39
2019-02-18T10:09:47.830Z,42.43
2019-02-18T10:10:55.309Z,42.60
2019-02-18T10:11:47.894Z,43.47
2019-02-18T10:12:47.931Z,43.66
2019-02-18T10:13:47.974Z,43.76
2019-02-18T10:14:48.011Z,44.02
2019-02-18T10:15:48.046Z,44.43
2019-02-18T10:16:48.079Z,43.85
2019-02-18T10:17:48.124Z,43.93
2019-02-18T10:18:48.151Z,44.29
2019-02-18T10:19:48.189Z,44.60
2019-02-18T10:20:48.229Z,44.14
2019-02-18T10:21:48.268Z,43.93
2019-02-18T10:22:48.299Z,43.59
2019-02-18T10:23:48.336Z,42.99
2019-02-18T10:25:48.413Z,43.35
2019-02-18T10:26:48.448Z,44.77
2019-02-18T10:27:48.484Z,44.70
2019-02-18T10:28:48.523Z,44.79
2019-02-18T10:29:48.567Z,44.14
2019-02-18T10:30:48.595Z,43.66
2019-02-18T10:31:48.634Z,43.47
2019-02-18T10:32:48.672Z,43.66
2019-02-18T10:33:48.707Z,43.37
2019-02-18T10:34:48.809Z,43.66
2019-02-18T10:35:48.782Z,43.93
2019-02-18T10:36:48.818Z,44.24
2019-02-18T10:37:55.028Z,43.93
2019-02-18T10:38:48.892Z,44.05
2019-02-18T10:39:48.930Z,43.59
2019-02-18T10:40:48.969Z,42.91
2019-02-18T10:41:49.005Z,42.72
2019-02-18T10:42:49.041Z,43.30
2019-02-18T10:43:49.081Z,42.74
2019-02-18T10:44:49.112Z,42.46
2019-02-18T10:45:49.161Z,41.80
2019-02-18T10:46:49.187Z,42.46
2019-02-18T10:47:49.223Z,42.53
2019-02-18T10:48:49.265Z,41.86
2019-02-18T10:49:49.296Z,42.63
2019-02-18T10:50:49.332Z,42.46
2019-02-18T10:51:49.375Z,41.61
2019-02-18T10:52:49.410Z,41.49
2019-02-18T10:53:49.445Z,41.86
2019-02-18T10:54:49.696Z,41.66
2019-02-18T10:55:49.525Z,41.59
2019-02-18T10:56:49.556Z,41.88
2019-02-18T10:57:49.595Z,41.49
2019-02-18T10:58:49.632Z,41.39
2019-02-18T10:59:49.670Z,40.72
2019-02-18T11:00:49.707Z,41.47
2019-02-18T11:01:49.743Z,42.63
2019-02-18T11:02:49.780Z,42.24
2019-02-18T11:03:49.815Z,42.46
2019-02-18T11:04:49.855Z,41.30
2019-02-18T11:05:49.892Z,41.41
2019-02-18T11:06:49.928Z,41.05
2019-02-18T11:07:49.964Z,40.64
2019-02-18T11:08:50.003Z,40.64
2019-02-18T11:09:50.038Z,40.57
2019-02-18T11:10:50.075Z,40.57
2019-02-18T11:11:50.116Z,40.28
2019-02-18T11:12:50.152Z,40.36
2019-02-18T11:13:50.189Z,40.45
2019-02-18T11:14:50.225Z,40.74
2019-02-18T11:15:50.262Z,40.55
2019-02-18T11:16:50.298Z,40.37
2019-02-18T11:17:50.342Z,40.28
2019-02-18T11:18:50.374Z,40.76
2019-02-18T11:19:50.411Z,40.57
2019-02-18T11:20:50.449Z,40.47
2019-02-18T11:21:50.484Z,40.53
2019-02-18T11:22:50.520Z,41.03
2019-02-18T11:23:50.566Z,40.57
2019-02-18T11:24:50.604Z,40.47
2019-02-18T11:25:50.636Z,40.19
2019-02-18T11:26:50.675Z,39.91
2019-02-18T11:27:50.707Z,39.26
2019-02-18T11:28:50.744Z,39.43
2019-02-18T11:29:50.783Z,39.36
2019-02-18T11:30:50.820Z,38.51
2019-02-18T11:31:50.860Z,38.02
2019-02-18T11:32:50.895Z,38.49
2019-02-18T11:33:50.936Z,39.24
2019-02-18T11:34:50.985Z,39.79
2019-02-18T11:35:51.011Z,39.84
2019-02-18T11:36:51.043Z,38.89
2019-02-18T11:37:51.087Z,38.14
2019-02-18T11:38:51.120Z,37.85
2019-02-18T11:39:51.161Z,37.93
2019-02-18T11:40:51.196Z,38.58
2019-02-18T11:41:51.231Z,38.51
2019-02-18T11:42:51.266Z,39.04
2019-02-18T11:43:51.309Z,39.91
2019-02-18T11:44:51.344Z,39.82
2019-02-18T11:45:51.389Z,39.82
2019-02-18T11:46:51.418Z,40.47
2019-02-18T11:47:51.458Z,40.74
2019-02-18T11:48:51.494Z,40.95
2019-02-18T11:49:51.529Z,41.53
2019-02-18T11:50:51.574Z,41.07
2019-02-18T11:51:51.605Z,40.12
2019-02-18T11:52:51.641Z,38.99
2019-02-18T11:53:51.681Z,38.71
2019-02-18T11:54:51.716Z,38.43
2019-02-18T11:55:51.753Z,38.23
2019-02-18T11:56:51.794Z,38.21
2019-02-18T11:57:51.830Z,38.51
2019-02-18T11:58:51.873Z,38.78
2019-02-18T11:59:51.902Z,38.53
2019-02-18T12:00:51.940Z,38.25
2019-02-18T12:01:51.979Z,37.12
2019-02-18T12:03:02.508Z,36.53
2019-02-18T12:03:52.055Z,36.80
2019-02-18T12:04:52.093Z,37.27
2019-02-18T12:05:52.129Z,38.41
2019-02-18T12:06:52.164Z,38.41
2019-02-18T12:07:52.204Z,37.73
2019-02-18T12:08:52.240Z,38.23
2019-02-18T12:09:52.280Z,37.75
2019-02-18T12:10:52.314Z,37.56
2019-02-18T12:11:52.354Z,37.75
2019-02-18T12:12:52.390Z,37.65
2019-02-18T12:13:52.427Z,37.46
2019-02-18T12:14:52.464Z,37.48
2019-02-18T12:15:52.502Z,36.74
2019-02-18T12:16:52.546Z,36.82
2019-02-18T12:17:52.585Z,36.61
2019-02-18T12:18:52.614Z,37.29
2019-02-18T12:19:52.653Z,36.98
2019-02-18T12:20:52.692Z,38.12
2019-02-18T12:21:52.735Z,38.31
2019-02-18T12:22:52.771Z,38.49
2019-02-18T12:23:52.809Z,38.41
2019-02-18T12:24:52.849Z,38.29
2019-02-18T12:25:52.883Z,38.87
2019-02-18T12:26:52.917Z,39.16
2019-02-18T12:27:52.955Z,38.97
2019-02-18T12:28:52.992Z,38.85
2019-02-18T12:29:53.482Z,39.26
2019-02-18T12:30:53.071Z,38.70
2019-02-18T12:31:53.105Z,38.04
2019-02-18T12:32:53.142Z,38.23
2019-02-18T12:33:53.179Z,38.16
2019-02-18T12:34:53.213Z,37.87
2019-02-18T12:35:53.258Z,37.56
2019-02-18T12:36:53.289Z,37.15
2019-02-18T12:37:55.590Z,37.45
2019-02-18T12:38:53.366Z,37.83
2019-02-18T12:39:53.402Z,38.20
2019-02-18T12:40:53.437Z,37.75
2019-02-18T12:41:53.476Z,37.56
2019-02-18T12:42:53.512Z,38.21
2019-02-18T12:43:53.550Z,38.14
2019-02-18T12:44:53.584Z,38.14
2019-02-18T12:45:53.631Z,38.10
2019-02-18T12:46:53.657Z,38.78
2019-02-18T12:47:53.703Z,38.41
2019-02-18T12:48:53.840Z,38.12
2019-02-18T12:49:53.775Z,37.56
2019-02-18T12:50:53.806Z,37.06
2019-02-18T12:51:53.841Z,37.93
2019-02-18T12:52:53.881Z,38.23
2019-02-18T12:53:53.924Z,37.63
2019-02-18T12:54:54.070Z,38.21
2019-02-18T12:55:53.996Z,37.75
2019-02-18T12:56:54.028Z,37.56